Time;durP1;ratioP1;P1;durP2;ratioP2;P2;SDS_P1;SDS_P2;PMS_P1;PMS_P2;Temp;Humidity;BMP_temperature;BMP_pressure;BME280_temperature;BME280_humidity;BME280_pressure;Samples;Min_cycle;Max_cycle;Signal;HPM_P1;HPM_P2
2022/08/25 00:01:13;;;;;;;24.67;20.40;;;25.00;99.90;;;;;;5079411;28;20181;-63
2022/08/25 00:03:41;;;;;;;26.02;21.08;;;25.00;99.90;;;;;;5077302;28;20205;-64
2022/08/25 00:06:07;;;;;;;27.70;21.40;;;25.00;99.90;;;;;;5094053;28;20181;-64
2022/08/25 00:08:36;;;;;;;26.02;20.42;;;24.90;99.90;;;;;;5076298;28;20186;-64
2022/08/25 00:11:04;;;;;;;29.25;20.75;;;24.90;99.90;;;;;;5112341;28;20625;-63
2022/08/25 00:13:30;;;;;;;28.20;20.00;;;24.90;99.90;;;;;;5092643;28;20189;-64
2022/08/25 00:15:56;;;;;;;25.65;20.38;;;24.90;99.90;;;;;;5095010;28;20177;-63
2022/08/25 00:18:21;;;;;;;29.60;21.27;;;24.90;99.90;;;;;;5097529;28;20182;-64
2022/08/25 00:20:48;;;;;;;21.80;19.52;;;24.80;99.90;;;;;;5084573;28;20231;-64
2022/08/25 00:23:13;;;;;;;25.08;21.38;;;24.80;99.90;;;;;;5095985;28;20197;-64
2022/08/25 00:25:39;;;;;;;24.35;20.70;;;24.80;99.90;;;;;;5074039;28;20185;-64
2022/08/25 00:28:05;;;;;;;26.17;20.50;;;24.80;99.90;;;;;;5079969;28;20185;-64
2022/08/25 00:30:31;;;;;;;28.80;20.75;;;24.80;99.90;;;;;;5092041;28;20197;-64
2022/08/25 00:32:56;;;;;;;29.27;22.52;;;24.70;99.90;;;;;;5104102;28;20200;-63
2022/08/25 00:35:23;;;;;;;26.92;20.83;;;24.70;99.90;;;;;;5093421;28;20185;-63
2022/08/25 00:37:49;;;;;;;25.98;20.63;;;24.70;99.90;;;;;;5086591;28;20274;-64
2022/08/25 00:40:14;;;;;;;25.58;21.92;;;24.60;99.90;;;;;;5108437;28;20185;-63
2022/08/25 00:42:40;;;;;;;28.98;21.65;;;24.60;99.90;;;;;;5095873;28;20213;-63
2022/08/25 00:45:08;;;;;;;26.70;21.67;;;24.60;99.90;;;;;;5107835;28;20644;-63
2022/08/25 00:47:35;;;;;;;26.75;21.73;;;24.60;99.90;;;;;;5095997;28;20251;-64
2022/08/25 00:50:06;;;;;;;30.40;22.05;;;24.60;99.90;;;;;;5097215;28;20177;-63
2022/08/25 00:52:46;;;;;;;28.63;21.50;;;24.50;99.90;;;;;;5087828;28;20212;-64
2022/08/25 00:55:22;;;;;;;26.30;21.80;;;24.50;99.90;;;;;;5100616;28;20724;-64
2022/08/25 00:57:58;;;;;;;28.67;22.60;;;24.50;99.90;;;;;;5103254;28;20205;-64
2022/08/25 01:00:31;;;;;;;27.35;22.02;;;24.50;99.90;;;;;;5095701;28;20185;-63
2022/08/25 01:02:58;;;;;;;27.08;22.23;;;24.50;99.90;;;;;;5084407;28;20204;-63
2022/08/25 01:05:25;;;;;;;27.92;22.25;;;24.50;99.90;;;;;;5104620;28;20177;-64
2022/08/25 01:07:52;;;;;;;28.25;22.60;;;24.40;99.90;;;;;;5080021;28;20247;-63
2022/08/25 01:10:21;;;;;;;26.17;21.70;;;24.40;99.90;;;;;;5096174;28;20178;-64
2022/08/25 01:12:48;;;;;;;30.65;22.83;;;24.40;99.90;;;;;;5103895;28;20476;-64
2022/08/25 01:15:14;;;;;;;27.02;22.90;;;24.40;99.90;;;;;;5097648;28;20186;-64
2022/08/25 01:17:52;;;;;;;32.78;23.95;;;24.40;99.90;;;;;;5080783;28;20217;-64
2022/08/25 01:20:20;;;;;;;28.20;22.83;;;24.30;99.90;;;;;;5112951;28;20192;-64
2022/08/25 01:22:47;;;;;;;28.45;23.65;;;24.30;99.90;;;;;;5101736;28;20216;-64
2022/08/25 01:25:34;;;;;;;30.65;22.95;;;24.30;99.90;;;;;;5106885;28;20653;-64
2022/08/25 01:28:00;;;;;;;30.15;23.73;;;24.30;99.90;;;;;;5100837;28;20321;-64
2022/08/25 01:30:26;;;;;;;28.25;24.45;;;24.30;99.90;;;;;;5104731;28;20517;-64
2022/08/25 01:32:52;;;;;;;28.27;23.50;;;24.20;99.90;;;;;;5097738;28;20682;-64
2022/08/25 01:35:18;;;;;;;28.45;23.85;;;24.20;99.90;;;;;;5092366;28;20187;-64
2022/08/25 01:37:44;;;;;;;26.52;23.63;;;24.20;99.90;;;;;;5106693;28;20209;-65
2022/08/25 01:40:11;;;;;;;31.27;24.90;;;24.20;99.90;;;;;;5101999;28;20245;-64
2022/08/25 01:42:59;;;;;;;37.17;24.38;;;24.20;99.90;;;;;;5099064;28;20200;-64
2022/08/25 01:45:25;;;;;;;31.10;24.17;;;24.10;99.90;;;;;;5110534;28;20213;-64
2022/08/25 01:47:51;;;;;;;31.40;24.15;;;24.10;99.90;;;;;;5077370;28;20238;-64
2022/08/25 01:50:16;;;;;;;31.77;24.20;;;24.10;99.90;;;;;;5099696;28;20698;-63
2022/08/25 01:52:57;;;;;;;31.30;24.50;;;24.10;99.90;;;;;;5097080;28;20193;-63
2022/08/25 01:55:23;;;;;;;34.67;25.55;;;24.10;99.90;;;;;;5113289;28;20533;-63
2022/08/25 01:57:49;;;;;;;30.92;25.05;;;24.00;99.90;;;;;;5104825;28;20261;-66
2022/08/25 02:00:17;;;;;;;31.98;25.48;;;24.00;99.90;;;;;;5081848;28;20186;-62
2022/08/25 02:02:45;;;;;;;31.58;24.33;;;23.90;99.90;;;;;;5098465;28;20189;-63
2022/08/25 02:05:15;;;;;;;31.13;25.25;;;23.90;99.90;;;;;;5112863;28;20226;-64
2022/08/25 02:07:41;;;;;;;35.35;25.80;;;23.90;99.90;;;;;;5083054;28;20188;-64
2022/08/25 02:10:09;;;;;;;34.05;25.88;;;23.90;99.90;;;;;;5077461;28;20190;-63
2022/08/25 02:12:35;;;;;;;39.42;25.63;;;23.80;99.90;;;;;;5094220;28;20188;-63
2022/08/25 02:15:04;;;;;;;29.75;26.23;;;23.80;99.90;;;;;;5097416;28;20174;-63
2022/08/25 02:17:30;;;;;;;32.63;26.33;;;23.80;99.90;;;;;;5094145;28;20224;-64
2022/08/25 02:19:56;;;;;;;31.85;26.75;;;23.80;99.90;;;;;;5093446;28;20592;-64
2022/08/25 02:22:23;;;;;;;33.42;27.33;;;23.80;99.90;;;;;;5101295;28;20185;-63
2022/08/25 02:24:49;;;;;;;30.42;27.20;;;23.80;99.90;;;;;;5093951;28;20190;-64
2022/08/25 02:27:14;;;;;;;30.95;26.35;;;23.70;99.90;;;;;;5083414;28;20221;-64
2022/08/25 02:29:40;;;;;;;31.73;28.17;;;23.70;99.90;;;;;;5060226;28;20219;-64
2022/08/25 02:32:07;;;;;;;31.83;28.27;;;23.70;99.90;;;;;;5092801;28;20188;-64
2022/08/25 02:34:34;;;;;;;33.35;28.00;;;23.60;99.90;;;;;;5093826;28;20182;-64
2022/08/25 02:37:00;;;;;;;39.38;28.02;;;23.60;99.90;;;;;;5106940;28;20247;-63
2022/08/25 02:39:26;;;;;;;41.00;29.23;;;23.60;99.90;;;;;;5104456;28;20207;-64
2022/08/25 02:41:52;;;;;;;37.63;28.73;;;23.60;99.90;;;;;;5095113;28;20259;-64
2022/08/25 02:44:18;;;;;;;32.80;28.13;;;23.60;99.90;;;;;;5094732;28;20234;-63
2022/08/25 02:46:44;;;;;;;34.17;28.50;;;23.60;99.90;;;;;;5086304;28;20193;-63
2022/08/25 02:49:09;;;;;;;37.05;27.92;;;23.60;99.90;;;;;;5089331;28;20189;-63
2022/08/25 02:51:35;;;;;;;41.55;33.08;;;23.60;99.90;;;;;;5106014;28;20746;-64
2022/08/25 02:54:02;;;;;;;34.67;29.10;;;23.50;99.90;;;;;;5107956;28;20508;-64
2022/08/25 02:56:30;;;;;;;40.00;29.23;;;23.50;99.90;;;;;;5074882;28;20213;-64
2022/08/25 02:58:55;;;;;;;36.63;29.25;;;23.50;99.90;;;;;;5101927;28;20185;-64
2022/08/25 03:01:22;;;;;;;36.22;29.02;;;23.50;99.90;;;;;;5112754;28;20177;-64
2022/08/25 03:03:48;;;;;;;34.03;29.08;;;23.50;99.90;;;;;;5105061;28;20660;-64
2022/08/25 03:06:17;;;;;;;34.60;28.77;;;23.50;99.90;;;;;;5102177;28;20182;-64
2022/08/25 03:08:43;;;;;;;39.47;29.38;;;23.50;99.90;;;;;;5098732;28;20182;-63
2022/08/25 03:11:09;;;;;;;34.85;30.23;;;23.50;99.90;;;;;;5107122;28;20196;-63
2022/08/25 03:13:36;;;;;;;35.45;29.90;;;23.50;99.90;;;;;;5090640;28;20185;-64
2022/08/25 03:16:03;;;;;;;44.63;30.58;;;23.40;99.90;;;;;;5090207;28;20181;-64
2022/08/25 03:18:29;;;;;;;34.50;29.48;;;23.40;99.90;;;;;;5110538;28;20184;-64
2022/08/25 03:20:55;;;;;;;33.38;29.75;;;23.40;99.90;;;;;;5098891;28;20199;-63
2022/08/25 03:23:21;;;;;;;35.70;30.33;;;23.40;99.90;;;;;;5088371;28;20546;-65
2022/08/25 03:28:32;;;;;;;36.65;30.65;;;23.40;99.90;;;;;;5080695;28;20277;-63
2022/08/25 03:30:59;;;;;;;38.20;32.92;;;23.30;99.90;;;;;;5105992;28;20514;-63
2022/08/25 03:33:26;;;;;;;37.05;31.00;;;23.30;99.90;;;;;;5094593;28;20185;-64
2022/08/25 03:35:53;;;;;;;36.80;30.35;;;23.30;99.90;;;;;;5090650;28;20177;-62
2022/08/25 03:38:18;;;;;;;39.63;29.13;;;23.30;99.90;;;;;;5095614;28;20208;-64
2022/08/25 03:40:44;;;;;;;34.15;28.30;;;23.20;99.90;;;;;;5102636;28;20186;-64
2022/08/25 03:43:10;;;;;;;39.53;28.52;;;23.20;99.90;;;;;;5106223;28;20678;-64
2022/08/25 03:45:40;;;;;;;35.53;29.00;;;23.20;99.90;;;;;;5095451;28;20186;-64
2022/08/25 03:48:05;;;;;;;39.92;28.50;;;23.20;99.90;;;;;;5095199;28;20184;-64
2022/08/25 03:50:31;;;;;;;32.85;28.95;;;23.20;99.90;;;;;;5093588;28;20227;-64
2022/08/25 03:52:57;;;;;;;34.17;28.00;;;23.20;99.90;;;;;;5098805;28;20664;-64
2022/08/25 03:55:25;;;;;;;32.40;27.98;;;23.10;99.90;;;;;;5093548;28;20192;-64
2022/08/25 03:57:52;;;;;;;31.83;27.20;;;23.10;99.90;;;;;;5099382;28;20213;-64
2022/08/25 04:00:20;;;;;;;35.45;28.13;;;23.10;99.90;;;;;;5102585;28;20213;-64
2022/08/25 04:02:46;;;;;;;31.15;26.80;;;23.10;99.90;;;;;;5075536;28;20276;-64
2022/08/25 04:05:12;;;;;;;30.15;26.90;;;23.10;99.90;;;;;;5088491;28;20535;-64
2022/08/25 04:07:38;;;;;;;34.10;27.38;;;23.10;99.90;;;;;;5101772;28;20726;-64
2022/08/25 04:10:09;;;;;;;33.58;26.58;;;23.10;99.90;;;;;;5096002;28;20222;-64
2022/08/25 04:12:36;;;;;;;34.60;27.10;;;23.10;99.90;;;;;;5108422;28;20215;-64
2022/08/25 04:15:04;;;;;;;33.55;27.15;;;23.00;99.90;;;;;;5113519;28;20250;-64
2022/08/25 04:17:30;;;;;;;32.88;26.00;;;23.00;99.90;;;;;;5104300;28;20210;-64
2022/08/25 04:19:56;;;;;;;33.33;25.50;;;23.00;99.90;;;;;;5115286;28;20706;-64
2022/08/25 04:22:22;;;;;;;30.05;25.13;;;23.00;99.90;;;;;;5093296;28;20208;-64
2022/08/25 04:24:48;;;;;;;29.58;25.08;;;22.90;99.90;;;;;;5115502;28;20181;-64
2022/08/25 04:27:13;;;;;;;30.05;24.38;;;22.90;99.90;;;;;;5110585;28;20230;-64
2022/08/25 04:29:39;;;;;;;32.30;24.55;;;22.90;99.90;;;;;;5093444;28;20182;-64
2022/08/25 04:32:05;;;;;;;33.97;24.85;;;22.80;99.90;;;;;;5098077;28;20185;-65
2022/08/25 04:34:31;;;;;;;30.15;23.02;;;22.80;99.90;;;;;;5113185;28;20212;-64
2022/08/25 04:37:02;;;;;;;32.47;23.48;;;22.80;99.90;;;;;;5111107;28;20552;-64
2022/08/25 04:39:29;;;;;;;23.88;21.05;;;22.70;99.90;;;;;;5098269;28;20262;-63
2022/08/25 04:41:54;;;;;;;26.05;22.33;;;22.70;99.90;;;;;;5099159;27;20576;-64
2022/08/25 04:44:20;;;;;;;27.02;20.90;;;22.70;99.90;;;;;;5107414;28;20246;-63
2022/08/25 04:46:46;;;;;;;23.88;21.25;;;22.70;99.90;;;;;;5083569;28;20185;-64
2022/08/25 04:49:12;;;;;;;27.15;20.00;;;22.70;99.90;;;;;;5107782;28;20310;-64
2022/08/25 04:51:40;;;;;;;22.35;18.42;;;22.60;99.90;;;;;;5081338;28;20803;-64
2022/08/25 04:54:10;;;;;;;22.73;17.08;;;22.60;99.90;;;;;;5092538;28;20192;-64
2022/08/25 04:56:39;;;;;;;21.38;16.75;;;22.60;99.90;;;;;;5109470;28;20209;-63
2022/08/25 04:59:09;;;;;;;18.92;14.70;;;22.60;99.90;;;;;;5097893;28;20223;-63
2022/08/25 05:01:35;;;;;;;18.20;13.40;;;22.60;99.90;;;;;;5111904;28;20222;-65
2022/08/25 05:04:03;;;;;;;15.98;12.35;;;22.50;99.90;;;;;;5092841;28;20260;-64
2022/08/25 05:06:29;;;;;;;18.23;11.52;;;22.50;99.90;;;;;;5105476;28;20191;-64
2022/08/25 05:08:57;;;;;;;16.67;11.38;;;22.50;99.90;;;;;;5097358;27;20281;-64
2022/08/25 05:11:24;;;;;;;14.85;10.88;;;22.50;99.90;;;;;;5085111;28;20181;-61
2022/08/25 05:13:52;;;;;;;21.80;13.45;;;22.50;99.90;;;;;;5087344;28;20278;-63
2022/08/25 05:16:19;;;;;;;18.55;11.10;;;22.50;99.90;;;;;;5101155;28;20256;-66
2022/08/25 05:18:45;;;;;;;17.25;9.40;;;22.50;99.90;;;;;;5094626;28;20260;-65
2022/08/25 05:21:15;;;;;;;12.77;8.27;;;22.50;99.90;;;;;;5100318;28;20278;-65
2022/08/25 05:23:41;;;;;;;16.23;9.70;;;22.50;99.90;;;;;;5077090;28;20225;-62
2022/08/25 05:26:18;;;;;;;22.00;9.48;;;22.50;99.90;;;;;;5084447;28;20197;-61
2022/08/25 05:28:45;;;;;;;15.80;9.20;;;22.50;99.90;;;;;;5094823;28;20230;-61
2022/08/25 05:31:13;;;;;;;13.48;9.52;;;22.50;99.90;;;;;;5111528;28;20188;-63
2022/08/25 05:33:39;;;;;;;14.35;10.20;;;22.50;99.90;;;;;;5111616;28;20524;-62
2022/08/25 05:36:08;;;;;;;14.98;9.32;;;22.50;99.90;;;;;;5096617;28;20173;-64
2022/08/25 05:38:33;;;;;;;14.73;9.13;;;22.50;99.90;;;;;;5109312;27;20185;-65
2022/08/25 05:41:05;;;;;;;10.20;8.40;;;22.50;99.90;;;;;;5114325;28;20173;-63
2022/08/25 05:43:32;;;;;;;13.63;9.00;;;22.50;99.90;;;;;;5107755;28;20234;-64
2022/08/25 05:45:58;;;;;;;19.63;8.88;;;22.50;99.90;;;;;;5096435;28;20250;-66
2022/08/25 05:48:26;;;;;;;13.30;9.55;;;22.50;99.90;;;;;;5108770;28;20177;-63
2022/08/25 05:51:00;;;;;;;18.00;10.93;;;22.50;99.90;;;;;;5114267;28;20291;-59
2022/08/25 05:53:27;;;;;;;16.45;9.25;;;22.50;99.90;;;;;;5111489;28;20217;-60
2022/08/25 05:55:55;;;;;;;13.77;8.63;;;22.50;99.90;;;;;;5095901;28;20208;-60
2022/08/25 05:58:22;;;;;;;17.40;8.75;;;22.50;99.90;;;;;;5110069;28;20217;-62
2022/08/25 06:00:48;;;;;;;13.68;8.82;;;22.50;99.90;;;;;;5112034;28;20180;-62
2022/08/25 06:03:14;;;;;;;12.45;8.68;;;22.60;99.90;;;;;;5106550;28;20265;-64
2022/08/25 06:05:40;;;;;;;17.70;10.05;;;22.60;99.90;;;;;;5112672;28;20264;-61
2022/08/25 06:08:06;;;;;;;12.23;8.57;;;22.60;99.90;;;;;;5107937;28;20264;-62
2022/08/25 06:10:33;;;;;;;15.85;8.43;;;22.70;99.90;;;;;;5093465;28;20268;-62
2022/08/25 06:12:59;;;;;;;12.15;7.97;;;22.70;99.90;;;;;;5107853;28;20169;-65
2022/08/25 06:15:25;;;;;;;14.27;8.35;;;22.70;99.90;;;;;;5095888;28;20224;-65
2022/08/25 06:17:52;;;;;;;14.95;8.90;;;22.80;99.90;;;;;;5109647;28;20611;-64
2022/08/25 06:20:20;;;;;;;11.57;8.27;;;22.80;99.90;;;;;;5112404;28;20185;-63
2022/08/25 06:22:47;;;;;;;15.32;8.70;;;22.80;99.90;;;;;;5106134;28;20207;-63
2022/08/25 06:25:16;;;;;;;16.30;8.70;;;22.90;99.90;;;;;;5094761;28;20656;-63
2022/08/25 06:27:41;;;;;;;13.98;8.63;;;22.90;99.90;;;;;;5102597;28;20196;-61
2022/08/25 06:30:10;;;;;;;15.10;8.43;;;23.00;99.90;;;;;;5095891;28;20197;-63
2022/08/25 06:32:38;;;;;;;10.25;7.88;;;23.00;99.90;;;;;;5103291;28;20247;-64
2022/08/25 06:35:07;;;;;;;11.27;8.35;;;23.00;99.90;;;;;;5093660;28;20178;-64
2022/08/25 06:37:33;;;;;;;18.58;8.60;;;23.10;99.90;;;;;;5087604;28;20202;-66
2022/08/25 06:39:59;;;;;;;16.27;8.38;;;23.10;99.90;;;;;;5080330;28;21242;-66
2022/08/25 06:42:25;;;;;;;15.77;8.00;;;23.10;99.90;;;;;;5093180;28;20181;-64
2022/08/25 06:44:50;;;;;;;18.83;8.30;;;23.10;99.90;;;;;;5112835;28;20649;-64
2022/08/25 06:47:17;;;;;;;17.52;8.90;;;23.10;99.90;;;;;;5094503;28;20234;-65
2022/08/25 06:49:43;;;;;;;12.75;7.32;;;23.10;99.90;;;;;;5113491;28;20177;-65
2022/08/25 06:52:10;;;;;;;12.75;7.85;;;23.10;99.90;;;;;;5107402;28;20226;-65
2022/08/25 06:54:36;;;;;;;13.57;7.68;;;23.20;99.90;;;;;;5110188;28;20209;-65
2022/08/25 06:57:03;;;;;;;16.35;7.68;;;23.20;99.90;;;;;;5092940;28;20241;-64
2022/08/25 06:59:29;;;;;;;9.73;7.20;;;23.20;99.90;;;;;;5103149;27;20239;-64
2022/08/25 07:01:55;;;;;;;16.13;7.65;;;23.20;99.90;;;;;;5108314;28;20256;-65
2022/08/25 07:04:21;;;;;;;13.52;7.40;;;23.20;99.90;;;;;;5090470;28;20204;-64
2022/08/25 07:06:47;;;;;;;12.18;7.03;;;23.30;99.90;;;;;;5106910;27;20189;-65
2022/08/25 07:09:13;;;;;;;12.88;6.38;;;23.30;99.90;;;;;;5095851;28;20189;-63
2022/08/25 07:11:40;;;;;;;12.40;6.28;;;23.40;99.90;;;;;;5083263;28;20185;-67
2022/08/25 07:14:08;;;;;;;10.27;5.88;;;23.50;99.90;;;;;;5093138;28;20268;-66
2022/08/25 07:16:34;;;;;;;12.32;5.97;;;23.50;99.90;;;;;;5093307;28;20284;-67
2022/08/25 07:19:01;;;;;;;9.02;5.20;;;23.60;99.90;;;;;;5097094;28;20238;-66
2022/08/25 07:21:30;;;;;;;9.20;5.60;;;23.70;99.90;;;;;;5091097;28;20689;-63
2022/08/25 07:23:57;;;;;;;16.88;5.45;;;23.80;99.90;;;;;;5079274;28;20188;-63
2022/08/25 07:26:30;;;;;;;18.33;5.78;;;23.90;99.70;;;;;;5093084;28;20628;-67
2022/08/25 07:28:58;;;;;;;10.23;5.32;;;24.00;99.40;;;;;;5091433;28;20657;-66
2022/08/25 07:31:24;;;;;;;14.07;5.20;;;24.10;99.20;;;;;;5057478;28;20181;-67
2022/08/25 07:36:41;;;;;;;9.77;4.57;;;24.20;98.50;;;;;;5054092;28;20260;-67
2022/08/25 07:39:08;;;;;;;10.55;4.57;;;24.20;97.90;;;;;;5102439;28;20181;-67
2022/08/25 07:41:39;;;;;;;7.60;4.32;;;24.20;97.40;;;;;;5090513;28;20196;-67
2022/08/25 07:44:06;;;;;;;13.88;4.60;;;24.30;96.90;;;;;;5074473;28;20260;-67
2022/08/25 07:46:32;;;;;;;9.25;4.50;;;24.30;96.60;;;;;;5074578;28;20169;-66
2022/08/25 07:48:58;;;;;;;9.27;4.65;;;24.40;96.40;;;;;;5092747;28;20181;-66
2022/08/25 07:51:24;;;;;;;16.13;4.68;;;24.40;96.30;;;;;;5091316;28;20221;-67
2022/08/25 07:53:50;;;;;;;11.10;4.55;;;24.50;96.10;;;;;;5109538;28;20551;-67
2022/08/25 07:56:17;;;;;;;9.50;4.65;;;24.50;96.00;;;;;;5111544;28;20191;-67
2022/08/25 07:58:45;;;;;;;7.30;4.40;;;24.60;95.90;;;;;;5109125;28;20181;-67
2022/08/25 08:01:15;;;;;;;9.18;4.05;;;24.70;95.80;;;;;;5092442;28;20169;-66
2022/08/25 08:03:41;;;;;;;11.45;4.18;;;24.70;95.60;;;;;;5109615;28;20212;-66
2022/08/25 08:06:12;;;;;;;11.27;4.18;;;24.80;95.50;;;;;;5103075;28;20365;-67
2022/08/25 08:08:44;;;;;;;10.63;4.30;;;24.90;95.30;;;;;;5105057;28;20177;-66
2022/08/25 08:11:25;;;;;;;11.73;4.15;;;25.00;95.00;;;;;;5112758;28;20173;-66
2022/08/25 08:13:53;;;;;;;9.30;4.25;;;25.00;94.80;;;;;;5094432;28;20556;-66
2022/08/25 08:16:21;;;;;;;18.10;3.72;;;25.20;94.50;;;;;;5112057;28;20215;-67
2022/08/25 08:18:47;;;;;;;13.00;4.35;;;25.20;94.20;;;;;;5108527;28;20216;-66
2022/08/25 08:21:18;;;;;;;10.50;4.30;;;25.30;94.00;;;;;;5111246;28;20213;-67
2022/08/25 08:23:44;;;;;;;11.10;4.00;;;25.40;93.80;;;;;;5092566;28;20177;-66
2022/08/25 08:26:10;;;;;;;11.07;4.10;;;25.50;93.50;;;;;;5092118;28;20504;-66
2022/08/25 08:28:36;;;;;;;9.75;4.40;;;25.60;93.20;;;;;;5103117;28;20539;-66
2022/08/25 08:31:02;;;;;;;9.40;3.90;;;25.60;92.80;;;;;;5112794;28;20165;-66
2022/08/25 08:33:28;;;;;;;13.52;4.00;;;25.70;92.50;;;;;;5094339;28;20322;-66
2022/08/25 08:36:00;;;;;;;11.60;4.22;;;25.80;92.30;;;;;;5110463;28;20209;-66
2022/08/25 08:38:26;;;;;;;8.57;3.78;;;25.80;92.00;;;;;;5088573;28;20205;-66
2022/08/25 08:44:25;;;;;;;13.02;4.30;;;25.90;91.80;;;;;;5103533;28;20700;-66
2022/08/25 08:47:02;;;;;;;8.00;4.13;;;26.00;91.70;;;;;;5092158;28;20292;-66
2022/08/25 08:49:44;;;;;;;10.32;4.40;;;26.10;91.30;;;;;;5074084;28;20170;-66
2022/08/25 08:52:14;;;;;;;13.75;3.88;;;26.20;91.30;;;;;;5095081;28;20247;-66
2022/08/25 08:54:43;;;;;;;10.70;4.00;;;26.30;91.20;;;;;;5106755;28;20178;-66
2022/08/25 08:57:16;;;;;;;9.82;3.80;;;26.40;91.00;;;;;;5103036;28;20213;-66
2022/08/25 08:59:52;;;;;;;10.65;3.95;;;26.50;90.60;;;;;;5096321;28;20252;-66
2022/08/25 09:02:32;;;;;;;16.83;4.25;;;26.60;89.70;;;;;;5093396;28;20594;-66
2022/08/25 09:05:02;;;;;;;11.18;3.60;;;26.80;89.00;;;;;;5116000;28;20567;-66
2022/08/25 09:07:34;;;;;;;8.63;3.47;;;26.90;88.20;;;;;;5106145;28;20186;-66
2022/08/25 09:10:00;;;;;;;8.65;3.30;;;27.10;87.10;;;;;;5094096;28;20181;-66
2022/08/25 09:12:40;;;;;;;8.52;3.72;;;27.20;86.60;;;;;;5111888;28;20626;-66
2022/08/25 09:15:19;;;;;;;9.93;3.60;;;27.30;86.00;;;;;;5114705;28;20185;-66
2022/08/25 09:17:58;;;;;;;9.05;3.67;;;27.50;85.20;;;;;;5093290;28;20204;-66
2022/08/25 09:20:35;;;;;;;12.85;4.07;;;27.60;84.70;;;;;;5098397;28;20172;-66
2022/08/25 09:23:31;;;;;;;10.15;4.00;;;27.70;84.00;;;;;;5095834;28;20235;-66
2022/08/25 09:26:34;;;;;;;12.95;3.60;;;27.80;83.60;;;;;;5095648;28;20174;-66
2022/08/25 09:29:03;;;;;;;11.23;3.63;;;27.90;83.80;;;;;;5109292;28;20211;-66
2022/08/25 09:31:34;;;;;;;13.18;3.50;;;28.10;82.90;;;;;;5113120;28;20663;-66
2022/08/25 09:34:03;;;;;;;10.63;4.03;;;28.20;81.60;;;;;;5095472;28;20218;-66
2022/08/25 09:36:32;;;;;;;18.08;3.92;;;28.20;80.80;;;;;;5095469;28;20254;-67
2022/08/25 09:38:58;;;;;;;18.15;3.40;;;28.30;80.10;;;;;;5103091;27;20704;-66
2022/08/25 09:41:42;;;;;;;7.85;3.38;;;28.30;79.10;;;;;;5083795;28;20246;-67
2022/08/25 09:44:20;;;;;;;8.20;3.50;;;28.40;77.30;;;;;;5094975;28;20252;-66
2022/08/25 09:47:16;;;;;;;6.75;3.22;;;28.50;76.00;;;;;;5095818;28;20204;-66
2022/08/25 09:49:47;;;;;;;7.18;2.97;;;28.60;72.90;;;;;;5076971;28;20169;-66
2022/08/25 09:52:36;;;;;;;9.65;3.50;;;28.70;70.50;;;;;;5097270;28;20250;-66
2022/08/25 09:55:14;;;;;;;11.20;3.38;;;28.80;68.40;;;;;;5099457;28;20256;-65
2022/08/25 09:57:43;;;;;;;15.10;3.15;;;28.80;67.00;;;;;;5103531;28;20200;-65
2022/08/25 10:00:22;;;;;;;10.23;2.92;;;28.90;65.20;;;;;;5091543;28;20196;-65
2022/08/25 10:03:03;;;;;;;7.13;2.92;;;29.00;63.70;;;;;;5090256;28;20265;-66
2022/08/25 10:05:33;;;;;;;8.95;3.50;;;29.10;62.10;;;;;;5093957;28;20696;-65
2022/08/25 10:08:10;;;;;;;9.02;2.90;;;29.20;62.30;;;;;;5106503;28;20184;-65
2022/08/25 10:10:44;;;;;;;15.05;3.58;;;29.20;61.40;;;;;;5105735;28;20168;-66
2022/08/25 10:13:18;;;;;;;9.48;3.40;;;29.30;60.70;;;;;;5097577;27;20177;-65
2022/08/25 10:15:44;;;;;;;4.78;2.95;;;29.40;60.00;;;;;;5096337;28;20153;-65
2022/08/25 10:18:23;;;;;;;8.75;3.28;;;29.50;59.60;;;;;;5090314;28;20681;-65
2022/08/25 10:21:07;;;;;;;7.55;2.80;;;29.60;59.20;;;;;;5103552;28;20185;-65
2022/08/25 10:23:37;;;;;;;11.98;3.38;;;29.60;57.50;;;;;;5094474;28;20188;-64
2022/08/25 10:26:38;;;;;;;11.57;2.80;;;29.80;58.30;;;;;;5093334;28;20264;-65
2022/08/25 10:29:12;;;;;;;5.80;2.65;;;29.90;58.10;;;;;;5095939;28;20177;-64
2022/08/25 10:31:54;;;;;;;8.70;2.95;;;30.10;57.50;;;;;;5094222;28;20269;-65
2022/08/25 10:34:43;;;;;;;11.75;2.90;;;30.20;56.90;;;;;;5109540;28;20219;-64
2022/08/25 10:37:21;;;;;;;8.57;2.70;;;30.40;56.30;;;;;;5091867;28;20233;-64
2022/08/25 10:40:26;;;;;;;8.95;3.30;;;30.50;56.20;;;;;;5110278;28;20215;-64
2022/08/25 10:43:19;;;;;;;8.93;3.13;;;30.60;55.80;;;;;;5104154;28;20192;-65
2022/08/25 10:45:53;;;;;;;13.02;2.80;;;30.80;55.60;;;;;;5095423;28;20169;-64
2022/08/25 10:48:32;;;;;;;7.93;2.90;;;30.80;54.70;;;;;;5096116;28;20275;-64
2022/08/25 10:51:34;;;;;;;10.07;2.78;;;30.90;53.90;;;;;;5100975;28;20319;-64
2022/08/25 10:54:24;;;;;;;7.70;3.08;;;31.10;53.40;;;;;;5027753;28;20191;-64
2022/08/25 10:57:20;;;;;;;7.50;2.80;;;31.20;52.60;;;;;;5109654;28;20233;-66
2022/08/25 11:00:21;;;;;;;7.13;2.78;;;31.30;52.10;;;;;;5092330;28;20245;-64
2022/08/25 11:03:43;;;;;;;6.30;2.60;;;31.40;51.20;;;;;;5093840;28;20192;-64
2022/08/25 11:06:21;;;;;;;10.90;2.47;;;31.50;49.30;;;;;;5032393;28;20183;-64
2022/08/25 11:08:54;;;;;;;5.30;2.50;;;31.60;49.20;;;;;;5107810;28;20188;-64
2022/08/25 11:11:25;;;;;;;8.65;2.70;;;31.60;48.50;;;;;;5116213;28;20168;-65
2022/08/25 11:14:06;;;;;;;8.80;2.78;;;31.60;48.40;;;;;;5096826;28;20186;-64
2022/08/25 11:16:44;;;;;;;6.57;2.45;;;31.70;47.90;;;;;;5077919;28;20157;-64
2022/08/25 11:19:30;;;;;;;17.55;3.47;;;31.80;47.70;;;;;;5112759;28;20661;-64
2022/08/25 11:22:13;;;;;;;6.50;2.60;;;31.80;47.80;;;;;;5087625;28;20385;-64
2022/08/25 11:24:41;;;;;;;4.88;2.70;;;31.90;47.80;;;;;;5095380;28;20180;-64
2022/08/25 11:27:14;;;;;;;5.80;2.35;;;31.90;47.70;;;;;;5106870;28;20690;-63
2022/08/25 11:29:43;;;;;;;6.65;3.13;;;32.00;47.40;;;;;;5072301;28;20318;-64
2022/08/25 11:32:09;;;;;;;5.78;2.90;;;32.10;47.40;;;;;;5093056;28;20254;-63
2022/08/25 11:34:36;;;;;;;6.95;2.75;;;32.20;47.20;;;;;;5093005;28;20602;-65
2022/08/25 11:37:17;;;;;;;5.20;2.65;;;32.30;47.10;;;;;;5075464;28;20629;-63
2022/08/25 11:40:06;;;;;;;12.23;3.15;;;32.30;46.70;;;;;;5094321;28;20185;-63
2022/08/25 11:42:41;;;;;;;6.13;2.95;;;32.40;46.80;;;;;;5093048;28;20196;-63
2022/08/25 11:45:16;;;;;;;9.20;3.10;;;32.30;46.90;;;;;;5092644;28;20177;-64
2022/08/25 11:48:27;;;;;;;6.82;2.80;;;32.40;46.80;;;;;;5093047;28;20185;-64
2022/08/25 11:51:01;;;;;;;5.28;2.60;;;32.30;46.40;;;;;;5044462;28;20235;-63
2022/08/25 11:53:29;;;;;;;12.60;2.97;;;32.30;46.70;;;;;;5089284;28;20226;-64
2022/08/25 11:56:03;;;;;;;9.05;2.83;;;32.20;46.90;;;;;;5095063;28;20248;-64
2022/08/25 11:58:47;;;;;;;8.40;2.80;;;32.30;47.20;;;;;;5095248;28;20371;-63
2022/08/25 12:01:43;;;;;;;8.15;3.17;;;32.30;46.90;;;;;;5107648;28;20249;-63
2022/08/25 12:04:13;;;;;;;7.95;2.80;;;32.30;46.30;;;;;;5092807;28;20165;-63
2022/08/25 12:07:04;;;;;;;4.80;2.72;;;32.20;46.50;;;;;;5092663;28;20199;-63
2022/08/25 12:09:30;;;;;;;7.93;3.15;;;32.20;46.60;;;;;;5104611;28;20274;-64
2022/08/25 12:11:57;;;;;;;5.65;3.17;;;32.20;47.10;;;;;;5102556;28;20196;-63
2022/08/25 12:14:25;;;;;;;10.40;3.05;;;32.30;47.30;;;;;;5074153;28;20177;-63
2022/08/25 12:16:54;;;;;;;8.30;2.70;;;32.40;47.20;;;;;;5074791;28;20287;-63
2022/08/25 12:19:25;;;;;;;6.57;3.15;;;32.50;47.30;;;;;;5074842;28;20181;-63
2022/08/25 12:21:54;;;;;;;6.97;3.28;;;32.60;47.30;;;;;;5101321;28;20585;-62
2022/08/25 12:24:44;;;;;;;10.60;3.20;;;32.80;47.10;;;;;;5074171;28;20227;-62
2022/08/25 12:27:37;;;;;;;9.60;3.30;;;33.00;46.90;;;;;;5092195;28;20181;-62
2022/08/25 12:30:16;;;;;;;10.02;4.00;;;33.20;46.60;;;;;;5092445;28;20174;-63
2022/08/25 12:33:02;;;;;;;10.02;3.40;;;33.30;46.50;;;;;;5077330;28;20233;-62
2022/08/25 12:35:32;;;;;;;22.00;4.05;;;33.30;45.90;;;;;;5107693;28;20190;-62
2022/08/25 12:38:12;;;;;;;6.55;3.15;;;33.20;46.40;;;;;;5103176;28;20273;-63
2022/08/25 12:40:47;;;;;;;9.65;3.55;;;33.20;46.30;;;;;;5106115;28;20264;-61
2022/08/25 12:43:18;;;;;;;10.65;3.35;;;33.10;46.10;;;;;;5110533;28;20229;-64
2022/08/25 12:45:47;;;;;;;8.32;3.42;;;33.00;46.00;;;;;;5096270;28;20169;-62
2022/08/25 12:48:33;;;;;;;9.43;4.13;;;33.00;46.30;;;;;;5108951;28;20185;-61
2022/08/25 12:51:06;;;;;;;22.35;4.00;;;32.90;46.40;;;;;;5099995;28;20236;-61
2022/08/25 12:53:41;;;;;;;7.55;3.50;;;32.90;47.20;;;;;;5113441;28;20176;-63
2022/08/25 12:56:31;;;;;;;9.48;3.80;;;32.90;47.50;;;;;;5098107;28;20184;-64
2022/08/25 12:59:00;;;;;;;15.57;4.00;;;32.90;47.00;;;;;;5096207;28;20170;-62
2022/08/25 13:02:00;;;;;;;7.03;3.25;;;32.90;47.20;;;;;;5107745;28;20169;-65
2022/08/25 13:04:40;;;;;;;17.33;4.70;;;32.80;46.90;;;;;;5089157;28;20177;-64